createdAt,value
2023-05-09T00:01:53.983Z,44.97
2023-05-09T00:03:59.672Z,44.95
2023-05-09T00:06:02.768Z,44.88
2023-05-09T00:08:05.581Z,44.25
2023-05-09T00:10:09.070Z,50.45
2023-05-09T00:12:12.595Z,57.03
2023-05-09T00:14:15.079Z,39.90
2023-05-09T00:16:18.178Z,41.72
2023-05-09T00:18:20.861Z,42.92
2023-05-09T00:20:26.002Z,53.70
2023-05-09T00:22:29.528Z,43.58
2023-05-09T00:24:32.113Z,46.55
2023-05-09T00:26:34.518Z,38.85
2023-05-09T00:28:37.573Z,40.00
2023-05-09T00:30:39.974Z,39.25
2023-05-09T00:32:42.529Z,41.15
2023-05-09T00:34:45.076Z,36.25
2023-05-09T00:36:50.827Z,41.13
2023-05-09T00:38:53.350Z,42.55
2023-05-09T00:40:55.903Z,44.88
2023-05-09T00:42:59.761Z,51.47
2023-05-09T00:45:02.496Z,44.33
2023-05-09T00:47:05.098Z,43.58
2023-05-09T00:49:08.293Z,54.75
2023-05-09T00:51:10.922Z,43.78
2023-05-09T00:53:16.900Z,51.10
2023-05-09T00:55:19.672Z,49.20
2023-05-09T00:57:22.342Z,35.70
2023-05-09T00:59:25.038Z,46.00
2023-05-09T01:01:27.516Z,42.67
2023-05-09T01:03:33.225Z,36.80
2023-05-09T01:05:44.034Z,38.42
2023-05-09T01:07:52.853Z,41.08
2023-05-09T01:10:15.968Z,35.72
2023-05-09T01:12:35.022Z,45.08
2023-05-09T01:14:44.818Z,38.13
2023-05-09T01:16:55.298Z,42.70
2023-05-09T01:19:08.576Z,44.75
2023-05-09T01:21:16.139Z,40.03
2023-05-09T01:23:50.821Z,45.33
2023-05-09T01:26:03.522Z,38.75
2023-05-09T01:28:14.558Z,38.50
2023-05-09T01:30:23.132Z,38.17
2023-05-09T01:32:31.560Z,42.08
2023-05-09T01:34:35.706Z,37.88
2023-05-09T01:38:48.976Z,46.58
2023-05-09T01:40:54.919Z,38.67
2023-05-09T01:43:00.000Z,40.58
2023-05-09T01:45:04.557Z,34.78
2023-05-09T01:47:14.627Z,38.28
2023-05-09T01:49:19.766Z,39.08
2023-05-09T01:51:23.066Z,47.90
2023-05-09T01:53:28.294Z,44.92
2023-05-09T01:55:34.046Z,42.65
2023-05-09T01:57:40.384Z,46.42
2023-05-09T01:59:45.468Z,42.80
2023-05-09T02:01:48.671Z,39.97
2023-05-09T02:03:55.969Z,49.83
2023-05-09T02:05:58.497Z,49.92
2023-05-09T02:08:01.400Z,48.80
2023-05-09T02:10:05.921Z,46.40
2023-05-09T02:12:08.671Z,46.33
2023-05-09T02:14:11.324Z,46.25
2023-05-09T02:16:14.249Z,44.03
2023-05-09T02:18:17.578Z,49.20
2023-05-09T02:20:22.823Z,49.80
2023-05-09T02:22:25.981Z,55.53
2023-05-09T02:24:28.627Z,47.10
2023-05-09T02:26:31.733Z,43.75
2023-05-09T02:28:35.779Z,55.80
2023-05-09T02:32:47.425Z,50.65
2023-05-09T02:34:52.404Z,58.38
2023-05-09T02:36:57.633Z,51.88
2023-05-09T02:39:01.559Z,52.45
2023-05-09T02:41:05.679Z,50.85
2023-05-09T02:43:08.225Z,51.15
2023-05-09T02:45:11.562Z,47.95
2023-05-09T02:47:16.824Z,52.78
2023-05-09T02:49:31.402Z,51.80
2023-05-09T02:51:36.531Z,45.63
2023-05-09T02:53:42.402Z,52.83
2023-05-09T02:55:45.358Z,53.60
2023-05-09T02:57:49.260Z,56.85
2023-05-09T02:59:54.443Z,53.58
2023-05-09T03:01:58.022Z,50.70
2023-05-09T03:04:00.570Z,48.30
2023-05-09T03:06:03.168Z,52.47
2023-05-09T03:08:06.195Z,47.85
2023-05-09T03:10:13.820Z,56.22
2023-05-09T03:12:17.737Z,50.70
2023-05-09T03:14:20.187Z,41.38
2023-05-09T03:16:25.990Z,55.28
2023-05-09T03:18:28.618Z,50.55
2023-05-09T03:20:31.309Z,41.97
2023-05-09T03:22:35.960Z,52.25
2023-05-09T03:24:41.087Z,54.35
2023-05-09T03:26:48.610Z,51.78
2023-05-09T03:28:52.663Z,48.75
2023-05-09T03:33:00.864Z,49.60
2023-05-09T03:35:04.057Z,46.47
2023-05-09T03:37:08.238Z,43.80
2023-05-09T03:39:14.728Z,50.25
2023-05-09T03:41:21.560Z,47.85
2023-05-09T03:43:27.306Z,50.13
2023-05-09T03:45:29.918Z,45.22
2023-05-09T03:47:33.053Z,44.53
2023-05-09T03:49:36.438Z,40.13
2023-05-09T03:51:41.868Z,54.33
2023-05-09T03:53:50.144Z,46.42
2023-05-09T03:55:53.004Z,51.25
2023-05-09T03:57:56.276Z,45.87
2023-05-09T04:00:02.545Z,49.85
2023-05-09T04:02:16.484Z,50.00
2023-05-09T04:04:21.340Z,44.55
2023-05-09T04:06:24.160Z,48.05
2023-05-09T04:08:27.734Z,49.97
2023-05-09T04:10:31.166Z,54.47
2023-05-09T04:12:37.138Z,50.45
2023-05-09T04:14:42.808Z,51.22
2023-05-09T04:16:47.853Z,54.83
2023-05-09T04:18:50.325Z,49.70
2023-05-09T04:20:53.624Z,58.35
2023-05-09T04:22:56.931Z,53.63
2023-05-09T04:24:59.728Z,58.72
2023-05-09T04:27:02.471Z,60.85
2023-05-09T04:29:05.332Z,68.90
2023-05-09T04:31:08.119Z,58.97
2023-05-09T04:33:17.376Z,60.58
2023-05-09T04:35:21.022Z,55.83
2023-05-09T04:37:25.067Z,65.20
2023-05-09T04:39:28.048Z,57.35
2023-05-09T04:41:39.342Z,68.40
2023-05-09T04:43:42.650Z,58.00
2023-05-09T04:45:48.051Z,66.78
2023-05-09T04:47:51.490Z,59.33
2023-05-09T04:49:56.753Z,65.75
2023-05-09T04:51:59.235Z,65.88
2023-05-09T04:54:02.917Z,69.40
2023-05-09T04:56:08.971Z,61.75
2023-05-09T04:58:12.225Z,68.90
2023-05-09T05:00:16.910Z,70.47
2023-05-09T05:02:22.463Z,68.50
2023-05-09T05:04:26.299Z,62.65
2023-05-09T05:06:32.090Z,68.90
2023-05-09T05:08:35.648Z,62.58
2023-05-09T05:10:38.355Z,65.00
2023-05-09T05:12:47.570Z,68.50
2023-05-09T05:14:53.645Z,62.40
2023-05-09T05:17:01.253Z,61.83
2023-05-09T05:19:04.533Z,62.03
2023-05-09T05:21:12.400Z,64.93
2023-05-09T05:23:18.635Z,64.17
2023-05-09T05:25:23.825Z,71.32
2023-05-09T05:27:27.973Z,62.63
2023-05-09T05:29:30.602Z,59.95
2023-05-09T05:31:33.484Z,61.58
2023-05-09T05:33:36.079Z,98.78
2023-05-09T05:35:39.162Z,65.43
2023-05-09T05:37:42.151Z,68.60
2023-05-09T05:39:47.550Z,77.37
2023-05-09T05:41:52.242Z,70.85
2023-05-09T05:43:55.685Z,70.20
2023-05-09T05:45:58.317Z,71.47
2023-05-09T05:48:02.896Z,75.50
2023-05-09T05:50:12.829Z,63.63
2023-05-09T05:52:16.094Z,70.78
2023-05-09T05:54:21.118Z,58.92
2023-05-09T05:56:26.400Z,55.00
2023-05-09T05:58:29.561Z,50.80
2023-05-09T06:00:32.161Z,49.47
2023-05-09T06:02:42.136Z,50.33
2023-05-09T06:04:45.051Z,51.15
2023-05-09T06:06:47.694Z,51.53
2023-05-09T06:08:50.602Z,59.70
2023-05-09T06:10:53.137Z,49.47
2023-05-09T06:12:58.297Z,39.90
2023-05-09T06:15:01.111Z,41.47
2023-05-09T06:17:04.401Z,46.50
2023-05-09T06:19:06.949Z,62.38
2023-05-09T06:21:09.529Z,64.72
2023-05-09T06:23:12.117Z,58.88
2023-05-09T06:25:15.320Z,60.92
2023-05-09T06:27:18.386Z,68.68
2023-05-09T06:29:23.597Z,68.47
2023-05-09T06:31:26.416Z,71.95
2023-05-09T06:33:31.101Z,65.22
2023-05-09T06:35:33.522Z,58.08
2023-05-09T06:37:38.661Z,63.50
2023-05-09T06:39:41.320Z,56.03
2023-05-09T06:41:43.715Z,53.83
2023-05-09T06:43:46.284Z,53.13
2023-05-09T06:45:51.527Z,64.55
2023-05-09T06:47:54.195Z,56.17
2023-05-09T06:49:56.722Z,42.50
2023-05-09T06:51:59.300Z,53.08
2023-05-09T06:54:01.929Z,56.58
2023-05-09T06:56:05.627Z,61.53
2023-05-09T06:58:08.244Z,57.83
2023-05-09T07:00:12.131Z,53.20
2023-05-09T07:02:17.177Z,59.80
2023-05-09T07:04:19.674Z,67.65
2023-05-09T07:06:22.116Z,50.65
2023-05-09T07:08:24.787Z,68.38
2023-05-09T07:10:27.329Z,76.10
2023-05-09T07:12:32.218Z,75.70
2023-05-09T07:14:34.668Z,68.68
2023-05-09T07:16:37.953Z,66.45
2023-05-09T07:18:43.190Z,73.55
2023-05-09T07:20:46.056Z,79.65
2023-05-09T07:22:50.062Z,67.35
2023-05-09T07:24:52.539Z,57.15
2023-05-09T07:26:55.136Z,57.38
2023-05-09T07:28:57.712Z,82.68
2023-05-09T07:31:00.624Z,87.65
2023-05-09T07:33:03.337Z,83.47
2023-05-09T07:35:08.958Z,74.38
2023-05-09T07:37:12.925Z,82.93
2023-05-09T07:39:17.072Z,71.95
2023-05-09T07:41:19.766Z,90.30
2023-05-09T07:43:22.490Z,89.75
2023-05-09T07:45:25.091Z,84.38
2023-05-09T07:47:27.637Z,83.05
2023-05-09T07:49:30.164Z,77.82
2023-05-09T07:51:35.240Z,68.13
2023-05-09T07:53:37.859Z,61.30
2023-05-09T07:55:40.305Z,87.97
2023-05-09T07:57:46.836Z,74.10
2023-05-09T07:59:49.348Z,76.32
2023-05-09T08:01:51.964Z,61.15
2023-05-09T08:03:54.669Z,51.33
2023-05-09T08:05:57.229Z,57.13
2023-05-09T08:08:02.327Z,56.45
2023-05-09T08:10:05.768Z,64.45
2023-05-09T08:12:08.693Z,88.82
2023-05-09T08:14:11.842Z,66.90
2023-05-09T08:16:15.240Z,77.57
2023-05-09T08:18:17.999Z,72.70
2023-05-09T08:20:20.499Z,68.80
2023-05-09T08:22:23.040Z,89.28
2023-05-09T08:24:28.413Z,83.18
2023-05-09T08:26:30.942Z,82.68
2023-05-09T08:28:36.510Z,75.38
2023-05-09T08:30:39.689Z,79.28
2023-05-09T08:32:42.251Z,86.40
2023-05-09T08:34:44.711Z,77.63
2023-05-09T08:36:47.309Z,101.97
2023-05-09T08:38:49.891Z,84.03
2023-05-09T08:41:00.977Z,67.72
2023-05-09T08:43:06.264Z,75.60
2023-05-09T08:45:10.628Z,75.18
2023-05-09T08:47:14.069Z,67.50
2023-05-09T08:49:16.967Z,59.03
2023-05-09T08:51:20.454Z,59.08
2023-05-09T08:53:23.707Z,70.60
2023-05-09T08:55:27.870Z,55.58
2023-05-09T08:59:38.516Z,51.80
2023-05-09T09:01:41.732Z,43.38
2023-05-09T09:03:47.946Z,42.33
2023-05-09T09:05:53.838Z,48.25
2023-05-09T09:07:58.000Z,55.20
2023-05-09T09:12:06.881Z,44.90
2023-05-09T09:14:16.688Z,86.88
2023-05-09T09:16:25.366Z,66.57
2023-05-09T09:18:30.771Z,56.67
2023-05-09T09:20:34.966Z,51.40
2023-05-09T09:24:40.703Z,46.08
2023-05-09T09:26:48.186Z,46.33
2023-05-09T09:28:54.551Z,47.58
2023-05-09T09:30:59.896Z,51.67
2023-05-09T09:33:02.713Z,51.25
2023-05-09T09:35:07.266Z,51.20
2023-05-09T09:37:09.872Z,62.60
2023-05-09T09:39:14.009Z,46.03
2023-05-09T09:43:18.895Z,40.15
2023-05-09T09:45:21.530Z,36.15
2023-05-09T09:47:34.257Z,38.42
2023-05-09T09:49:36.786Z,38.58
2023-05-09T09:51:39.322Z,39.78
2023-05-09T09:53:42.647Z,35.80
2023-05-09T09:55:51.193Z,42.42
2023-05-09T09:57:54.017Z,49.75
2023-05-09T09:59:59.440Z,38.45
2023-05-09T10:02:07.692Z,43.13
2023-05-09T10:04:16.953Z,41.40
2023-05-09T10:06:19.574Z,35.92
2023-05-09T10:08:22.044Z,35.33
2023-05-09T10:10:27.328Z,43.22
2023-05-09T10:12:33.746Z,35.90
2023-05-09T10:14:38.622Z,31.33
2023-05-09T10:16:44.218Z,36.10
2023-05-09T10:18:47.151Z,36.83
2023-05-09T10:20:53.431Z,32.78
2023-05-09T10:22:58.094Z,38.63
2023-05-09T10:25:03.743Z,31.92
2023-05-09T10:27:11.205Z,32.38
2023-05-09T10:29:21.280Z,29.73
2023-05-09T10:31:26.565Z,30.38
2023-05-09T10:33:38.022Z,33.58
2023-05-09T10:35:44.821Z,32.53
2023-05-09T10:37:50.357Z,29.33
2023-05-09T10:39:54.803Z,29.92
2023-05-09T10:41:59.235Z,32.17
2023-05-09T10:44:02.014Z,26.73
2023-05-09T10:46:05.479Z,26.63
2023-05-09T10:48:09.431Z,24.50
2023-05-09T10:50:15.625Z,26.55
2023-05-09T10:52:19.118Z,24.38
2023-05-09T10:54:32.493Z,26.60
2023-05-09T10:56:40.081Z,26.10
2023-05-09T10:58:42.770Z,24.63
2023-05-09T11:00:46.947Z,25.65
2023-05-09T11:03:11.078Z,24.67
2023-05-09T11:05:15.353Z,21.30
2023-05-09T11:07:25.882Z,26.10
2023-05-09T11:09:38.327Z,26.77
2023-05-09T11:11:52.559Z,22.92
2023-05-09T11:13:58.598Z,23.20
2023-05-09T11:16:11.933Z,26.35
2023-05-09T11:18:14.438Z,25.90
2023-05-09T11:20:16.964Z,21.77
2023-05-09T11:22:21.500Z,25.90
2023-05-09T11:24:26.256Z,31.25
2023-05-09T11:26:32.922Z,27.55
2023-05-09T11:28:36.992Z,27.02
2023-05-09T11:32:49.262Z,24.73
2023-05-09T11:34:51.854Z,25.23
2023-05-09T11:37:08.027Z,27.77
2023-05-09T11:39:11.686Z,26.90
2023-05-09T11:41:14.666Z,22.70
2023-05-09T11:43:19.882Z,20.35
2023-05-09T11:45:24.072Z,22.05
2023-05-09T11:47:27.539Z,25.25
2023-05-09T11:49:30.006Z,27.77
2023-05-09T11:51:32.713Z,24.30
2023-05-09T11:53:35.310Z,24.85
2023-05-09T11:55:41.404Z,25.92
2023-05-09T11:57:49.047Z,22.30
2023-05-09T11:59:54.493Z,23.55
2023-05-09T12:02:02.225Z,23.67
2023-05-09T12:04:08.182Z,23.70
2023-05-09T12:06:15.739Z,24.73
2023-05-09T12:08:18.541Z,23.60
2023-05-09T12:10:25.974Z,22.73
2023-05-09T12:12:28.490Z,23.25
2023-05-09T12:14:32.586Z,24.02
2023-05-09T12:18:48.891Z,22.40
2023-05-09T12:20:51.551Z,25.75
2023-05-09T12:22:56.383Z,22.20
2023-05-09T12:25:01.761Z,20.38
2023-05-09T12:27:05.224Z,23.15
2023-05-09T12:29:07.932Z,27.70
2023-05-09T12:31:10.539Z,27.98
2023-05-09T12:33:16.331Z,25.35
2023-05-09T12:35:23.093Z,18.30
2023-05-09T12:37:25.865Z,24.73
2023-05-09T12:39:30.447Z,24.55
2023-05-09T12:41:43.968Z,28.73
2023-05-09T12:43:56.217Z,27.00
2023-05-09T12:45:59.539Z,26.65
2023-05-09T12:48:02.921Z,26.77
2023-05-09T12:50:13.540Z,29.42
2023-05-09T12:52:20.727Z,19.77
2023-05-09T12:54:24.208Z,21.42
2023-05-09T12:56:26.757Z,17.08
2023-05-09T12:58:32.881Z,21.48
2023-05-09T13:00:45.432Z,24.67
2023-05-09T13:02:53.191Z,31.77
2023-05-09T13:05:21.171Z,31.30
2023-05-09T13:07:23.711Z,18.75
2023-05-09T13:09:30.573Z,27.90
2023-05-09T13:11:33.190Z,25.02
2023-05-09T13:13:35.756Z,28.77
2023-05-09T13:15:38.517Z,18.63
2023-05-09T13:17:41.505Z,38.08
2023-05-09T13:19:44.174Z,37.88
2023-05-09T13:21:49.713Z,39.97
2023-05-09T13:23:52.379Z,29.08
2023-05-09T13:25:54.998Z,41.15
2023-05-09T13:27:57.528Z,39.05
2023-05-09T13:30:00.409Z,49.83
2023-05-09T13:32:03.695Z,48.75
2023-05-09T13:34:06.230Z,51.65
2023-05-09T13:36:09.050Z,36.67
2023-05-09T13:38:14.109Z,27.40
2023-05-09T13:40:16.939Z,47.08
2023-05-09T13:42:19.936Z,43.78
2023-05-09T13:44:23.857Z,35.97
2023-05-09T13:46:28.900Z,31.17
2023-05-09T13:48:31.532Z,33.53
2023-05-09T13:50:34.733Z,31.60
2023-05-09T13:52:37.200Z,21.23
2023-05-09T13:54:45.399Z,19.00
2023-05-09T13:56:47.992Z,22.70
2023-05-09T13:58:50.501Z,27.10
2023-05-09T14:00:53.125Z,29.40
2023-05-09T14:02:56.581Z,24.75
2023-05-09T14:04:59.300Z,19.15
2023-05-09T14:07:01.865Z,19.20
2023-05-09T14:09:04.552Z,23.38
2023-05-09T14:11:09.748Z,22.85
2023-05-09T14:13:12.891Z,27.52
2023-05-09T14:15:16.647Z,26.27
2023-05-09T14:17:19.202Z,28.65
2023-05-09T14:19:21.735Z,23.92
2023-05-09T14:21:24.304Z,30.95
2023-05-09T14:23:26.817Z,36.55
2023-05-09T14:25:29.622Z,39.00
2023-05-09T14:27:37.285Z,32.65
2023-05-09T14:29:41.313Z,35.47
2023-05-09T14:31:44.183Z,39.58
2023-05-09T14:33:46.779Z,32.05
2023-05-09T14:35:49.937Z,68.18
2023-05-09T14:37:52.528Z,35.10
2023-05-09T14:39:57.772Z,34.38
2023-05-09T14:42:00.332Z,37.75
2023-05-09T14:44:05.504Z,43.20
2023-05-09T14:46:08.126Z,50.65
2023-05-09T14:48:10.807Z,41.03
2023-05-09T14:50:16.404Z,37.50
2023-05-09T14:52:19.126Z,58.20
2023-05-09T14:54:21.708Z,43.70
2023-05-09T14:56:24.261Z,47.70
2023-05-09T14:58:26.764Z,56.95
2023-05-09T15:00:35.870Z,54.80
2023-05-09T15:02:38.560Z,41.78
2023-05-09T15:06:49.370Z,40.25
2023-05-09T15:08:52.409Z,39.42
2023-05-09T15:10:58.080Z,41.33
2023-05-09T15:13:00.810Z,44.00
2023-05-09T15:15:16.987Z,59.95
2023-05-09T15:17:22.906Z,48.25
2023-05-09T15:19:26.500Z,42.92
2023-05-09T15:21:29.654Z,56.97
2023-05-09T15:23:32.335Z,36.33
2023-05-09T15:25:35.255Z,34.88
2023-05-09T15:27:38.125Z,42.70
2023-05-09T15:29:42.062Z,39.38
2023-05-09T15:31:44.588Z,42.30
2023-05-09T15:33:49.700Z,34.92
2023-05-09T15:35:56.788Z,30.98
2023-05-09T15:37:59.558Z,36.63
2023-05-09T15:40:02.242Z,33.53
2023-05-09T15:42:07.255Z,39.47
2023-05-09T15:44:09.785Z,36.38
2023-05-09T15:46:14.619Z,32.95
2023-05-09T15:48:17.227Z,21.95
2023-05-09T15:50:22.569Z,35.97
2023-05-09T15:52:30.848Z,28.17
2023-05-09T15:54:33.876Z,26.42
2023-05-09T15:56:39.273Z,23.13
2023-05-09T15:58:43.247Z,23.58
2023-05-09T16:00:45.832Z,23.15
2023-05-09T16:02:48.526Z,21.25
2023-05-09T16:04:51.876Z,15.70
2023-05-09T16:06:57.456Z,18.65
2023-05-09T16:09:02.250Z,22.42
2023-05-09T16:11:05.374Z,20.92
2023-05-09T16:13:08.359Z,18.10
2023-05-09T16:15:12.106Z,20.00
2023-05-09T16:17:14.633Z,23.73
2023-05-09T16:19:17.248Z,18.75
2023-05-09T16:21:20.021Z,24.45
2023-05-09T16:23:26.116Z,24.98
2023-05-09T16:25:28.697Z,24.55
2023-05-09T16:27:31.167Z,30.10
2023-05-09T16:29:33.686Z,27.00
2023-05-09T16:31:36.249Z,27.52
2023-05-09T16:33:40.058Z,28.48
2023-05-09T16:35:45.421Z,25.75
2023-05-09T16:37:48.092Z,27.17
2023-05-09T16:39:56.732Z,29.15
2023-05-09T16:41:59.761Z,23.10
2023-05-09T16:44:02.344Z,27.80
2023-05-09T16:46:05.354Z,18.10
2023-05-09T16:48:09.999Z,15.70
2023-05-09T16:50:12.531Z,19.60
2023-05-09T16:52:15.489Z,19.15
2023-05-09T16:54:17.917Z,21.88
2023-05-09T16:56:23.590Z,31.50
2023-05-09T16:58:26.181Z,23.48
2023-05-09T17:00:28.966Z,29.42
2023-05-09T17:02:31.613Z,32.15
2023-05-09T17:04:36.724Z,26.83
2023-05-09T17:06:41.034Z,29.42
2023-05-09T17:08:43.546Z,22.95
2023-05-09T17:10:49.225Z,23.13
2023-05-09T17:12:54.655Z,23.27
2023-05-09T17:14:59.200Z,25.05
2023-05-09T17:17:04.502Z,19.75
2023-05-09T17:19:07.026Z,27.70
2023-05-09T17:21:10.081Z,24.13
2023-05-09T17:23:12.758Z,27.23
2023-05-09T17:25:15.710Z,26.45
2023-05-09T17:27:21.283Z,16.30
2023-05-09T17:29:28.458Z,17.10
2023-05-09T17:31:32.537Z,23.45
2023-05-09T17:35:37.899Z,12.45
2023-05-09T17:37:40.387Z,22.98
2023-05-09T17:39:44.059Z,15.98
2023-05-09T17:41:46.874Z,23.48
2023-05-09T17:43:51.437Z,20.52
2023-05-09T17:45:57.064Z,21.88
2023-05-09T17:48:01.672Z,23.63
2023-05-09T17:50:04.914Z,19.27
2023-05-09T17:52:07.668Z,16.93
2023-05-09T17:54:11.030Z,20.48
2023-05-09T17:56:16.826Z,20.65
2023-05-09T17:58:27.830Z,33.22
2023-05-09T18:00:30.927Z,20.23
2023-05-09T18:02:36.274Z,30.17
2023-05-09T18:04:41.856Z,20.63
2023-05-09T18:06:45.207Z,22.65
2023-05-09T18:08:48.036Z,17.25
2023-05-09T18:10:50.769Z,22.75
2023-05-09T18:12:53.314Z,20.63
2023-05-09T18:14:57.188Z,16.73
2023-05-09T18:16:59.702Z,12.05
2023-05-09T18:19:06.256Z,21.85
2023-05-09T18:21:09.965Z,17.35
2023-05-09T18:23:12.437Z,17.58
2023-05-09T18:25:15.305Z,16.95
2023-05-09T18:27:17.797Z,23.42
2023-05-09T18:29:20.319Z,24.83
2023-05-09T18:31:23.064Z,16.77
2023-05-09T18:33:27.653Z,23.40
2023-05-09T18:35:33.098Z,25.27
2023-05-09T18:37:35.839Z,22.42
2023-05-09T18:39:38.338Z,13.70
2023-05-09T18:41:40.980Z,23.27
2023-05-09T18:43:47.312Z,25.70
2023-05-09T18:45:50.204Z,26.25
2023-05-09T18:47:52.757Z,23.58
2023-05-09T18:49:55.516Z,21.65
2023-05-09T18:52:00.916Z,18.60
2023-05-09T18:54:03.613Z,20.33
2023-05-09T18:56:06.502Z,23.38
2023-05-09T18:58:08.929Z,27.13
2023-05-09T19:00:13.158Z,21.30
2023-05-09T19:02:15.978Z,21.65
2023-05-09T19:04:19.720Z,18.75
2023-05-09T19:06:22.528Z,15.85
2023-05-09T19:08:29.419Z,23.98
2023-05-09T19:10:32.179Z,25.83
2023-05-09T19:12:37.765Z,20.42
2023-05-09T19:14:40.911Z,27.48
2023-05-09T19:16:43.659Z,21.55
2023-05-09T19:18:46.234Z,30.73
2023-05-09T19:20:49.451Z,33.22
2023-05-09T19:22:52.339Z,25.13
2023-05-09T19:24:57.755Z,24.77
2023-05-09T19:27:02.722Z,28.02
2023-05-09T19:29:08.338Z,33.90
2023-05-09T19:31:11.147Z,34.20
2023-05-09T19:33:14.004Z,24.15
2023-05-09T19:35:16.913Z,32.25
2023-05-09T19:37:19.556Z,31.27
2023-05-09T19:39:22.046Z,40.47
2023-05-09T19:41:27.480Z,38.03
2023-05-09T19:43:30.240Z,27.35
2023-05-09T19:45:32.734Z,25.05
2023-05-09T19:47:35.374Z,29.75
2023-05-09T19:49:38.612Z,30.95
2023-05-09T19:51:43.588Z,35.38
2023-05-09T19:53:47.080Z,34.47
2023-05-09T19:55:49.598Z,36.80
2023-05-09T19:57:54.647Z,38.60
2023-05-09T19:59:58.284Z,36.00
2023-05-09T20:02:01.202Z,32.17
2023-05-09T20:04:04.025Z,30.02
2023-05-09T20:06:09.352Z,38.00
2023-05-09T20:08:12.145Z,31.45
2023-05-09T20:10:16.382Z,31.15
2023-05-09T20:12:21.531Z,35.13
2023-05-09T20:14:26.833Z,26.45
2023-05-09T20:16:29.421Z,26.80
2023-05-09T20:18:35.016Z,33.58
2023-05-09T20:20:38.475Z,32.45
2023-05-09T20:22:41.089Z,25.70
2023-05-09T20:24:43.657Z,36.22
2023-05-09T20:26:46.311Z,31.60
2023-05-09T20:28:48.975Z,27.70
2023-05-09T20:30:54.583Z,33.63
2023-05-09T20:32:58.735Z,26.73
2023-05-09T20:37:04.249Z,23.48
2023-05-09T20:39:06.789Z,22.65
2023-05-09T20:41:09.394Z,31.70
2023-05-09T20:43:12.021Z,33.20
2023-05-09T20:45:14.625Z,32.25
2023-05-09T20:47:19.839Z,26.00
2023-05-09T20:49:23.230Z,24.23
2023-05-09T20:51:25.920Z,26.02
2023-05-09T20:53:31.861Z,31.38
2023-05-09T20:55:34.824Z,25.38
2023-05-09T20:57:37.495Z,26.92
2023-05-09T20:59:40.133Z,31.92
2023-05-09T21:01:44.085Z,27.23
2023-05-09T21:03:49.439Z,24.48
2023-05-09T21:05:53.424Z,23.50
2023-05-09T21:07:55.964Z,26.27
2023-05-09T21:09:59.500Z,31.48
2023-05-09T21:12:04.569Z,34.63
2023-05-09T21:14:08.562Z,27.50
2023-05-09T21:16:11.397Z,29.05
2023-05-09T21:18:14.101Z,34.17
2023-05-09T21:20:19.484Z,36.00
2023-05-09T21:22:26.558Z,28.77
2023-05-09T21:24:29.293Z,28.92
2023-05-09T21:26:32.502Z,30.27
2023-05-09T21:28:35.195Z,32.78
2023-05-09T21:30:37.731Z,30.92
2023-05-09T21:32:40.597Z,28.70
2023-05-09T21:34:43.444Z,26.35
2023-05-09T21:36:48.861Z,28.98
2023-05-09T21:38:51.601Z,31.08
2023-05-09T21:40:54.541Z,26.95
2023-05-09T21:42:57.461Z,21.52
2023-05-09T21:45:00.218Z,33.95
2023-05-09T21:47:20.185Z,27.23
2023-05-09T21:49:28.862Z,32.53
2023-05-09T21:51:52.407Z,25.92
2023-05-09T21:53:55.480Z,30.77
2023-05-09T21:55:58.143Z,32.03
2023-05-09T21:58:01.839Z,32.05
2023-05-09T22:00:05.738Z,32.08
2023-05-09T22:02:15.822Z,26.13
2023-05-09T22:04:18.395Z,26.98
2023-05-09T22:06:21.430Z,28.65
2023-05-09T22:08:26.949Z,30.73
2023-05-09T22:10:29.968Z,25.70
2023-05-09T22:14:42.173Z,22.67
2023-05-09T22:16:51.305Z,23.85
2023-05-09T22:18:55.029Z,27.67
2023-05-09T22:20:59.418Z,26.17
2023-05-09T22:23:03.150Z,28.88
2023-05-09T22:25:09.020Z,32.05
2023-05-09T22:27:11.709Z,24.88
2023-05-09T22:29:16.632Z,27.58
2023-05-09T22:31:19.121Z,33.28
2023-05-09T22:33:21.608Z,29.15
2023-05-09T22:35:24.187Z,24.15
2023-05-09T22:37:26.951Z,30.23
2023-05-09T22:39:31.074Z,37.28
2023-05-09T22:41:36.206Z,41.47
2023-05-09T22:43:39.466Z,24.92
2023-05-09T22:45:43.527Z,28.05
2023-05-09T22:47:46.029Z,32.72
2023-05-09T22:49:50.154Z,30.42
2023-05-09T22:51:52.700Z,26.73
2023-05-09T22:53:55.134Z,24.80
2023-05-09T22:55:59.559Z,27.75
2023-05-09T22:58:04.687Z,26.55
2023-05-09T23:00:08.536Z,27.08
2023-05-09T23:02:17.777Z,31.73
2023-05-09T23:04:20.265Z,29.65
2023-05-09T23:06:23.010Z,29.10
2023-05-09T23:08:25.615Z,26.50
2023-05-09T23:10:28.401Z,27.63
2023-05-09T23:12:31.350Z,32.80
2023-05-09T23:14:37.345Z,31.10
2023-05-09T23:16:39.987Z,27.45
2023-05-09T23:18:42.565Z,31.58
2023-05-09T23:20:45.602Z,28.73
2023-05-09T23:22:48.108Z,19.73
2023-05-09T23:24:50.836Z,24.20
2023-05-09T23:26:54.305Z,18.95
2023-05-09T23:28:56.892Z,18.52
2023-05-09T23:31:03.605Z,20.95
2023-05-09T23:33:10.727Z,21.65
2023-05-09T23:35:17.313Z,21.67
2023-05-09T23:37:19.791Z,21.42
2023-05-09T23:39:23.387Z,19.60
2023-05-09T23:41:26.466Z,20.50
2023-05-09T23:43:30.496Z,21.35
2023-05-09T23:47:38.276Z,19.65
2023-05-09T23:49:40.736Z,20.42
2023-05-09T23:51:43.402Z,20.33
2023-05-09T23:53:46.219Z,22.52
2023-05-09T23:55:48.936Z,16.38
2023-05-09T23:57:51.682Z,17.23
2023-05-09T23:59:54.275Z,17.80
